createdAt,value
2018-11-26T00:00:34.169Z,74.13
2018-11-26T00:03:02.505Z,63.20
2018-11-26T00:05:30.729Z,71.13
2018-11-26T00:07:58.947Z,69.77
2018-11-26T00:10:38.380Z,77.13
2018-11-26T00:13:06.717Z,68.57
2018-11-26T00:15:34.933Z,70.43
2018-11-26T00:18:03.156Z,72.07
2018-11-26T00:20:31.386Z,57.93
2018-11-26T00:22:59.622Z,71.63
2018-11-26T00:25:27.833Z,67.60
2018-11-26T00:27:56.070Z,69.53
2018-11-26T00:30:24.280Z,69.23
2018-11-26T00:32:52.489Z,70.33
2018-11-26T00:35:20.704Z,64.40
2018-11-26T00:37:48.933Z,59.80
2018-11-26T00:40:17.125Z,60.70
2018-11-26T00:42:45.356Z,59.90
2018-11-26T00:45:13.568Z,61.43
2018-11-26T00:47:41.793Z,62.80
2018-11-26T00:50:10.616Z,62.03
2018-11-26T00:52:39.812Z,60.40
2018-11-26T00:55:09.521Z,55.73
2018-11-26T00:57:37.803Z,64.30
2018-11-26T01:00:09.466Z,61.40
2018-11-26T01:02:37.788Z,66.10
2018-11-26T01:05:06.640Z,63.17
2018-11-26T01:07:34.842Z,62.97
2018-11-26T01:10:03.097Z,64.57
2018-11-26T01:12:31.340Z,61.67
2018-11-26T01:14:59.602Z,64.90
2018-11-26T01:17:27.802Z,55.77
2018-11-26T01:19:56.028Z,53.97
2018-11-26T01:22:24.241Z,73.37
2018-11-26T01:24:52.479Z,57.30
2018-11-26T01:27:20.680Z,58.97
2018-11-26T01:29:48.883Z,59.67
2018-11-26T01:32:17.115Z,64.67
2018-11-26T01:34:45.325Z,58.43
2018-11-26T01:37:13.550Z,50.07
2018-11-26T01:39:41.781Z,66.67
2018-11-26T01:42:09.992Z,67.00
2018-11-26T01:44:38.213Z,63.07
2018-11-26T01:47:06.425Z,64.13
2018-11-26T01:49:34.645Z,61.53
2018-11-26T01:52:02.850Z,57.63
2018-11-26T01:54:31.083Z,60.70
2018-11-26T01:56:59.325Z,65.13
2018-11-26T01:59:27.549Z,56.43
2018-11-26T02:01:55.796Z,58.17
2018-11-26T02:04:24.033Z,61.50
2018-11-26T02:06:52.276Z,65.10
2018-11-26T02:09:20.528Z,64.47
2018-11-26T02:11:48.745Z,61.53
2018-11-26T02:14:16.949Z,65.10
2018-11-26T02:16:45.213Z,64.43
2018-11-26T02:19:13.425Z,59.77
2018-11-26T02:21:41.644Z,52.47
2018-11-26T02:24:09.841Z,70.73
2018-11-26T02:26:38.059Z,54.47
2018-11-26T02:29:06.714Z,54.70
2018-11-26T02:31:34.969Z,55.90
2018-11-26T02:34:03.168Z,54.90
2018-11-26T02:36:31.351Z,54.90
2018-11-26T02:38:59.581Z,62.87
2018-11-26T02:41:27.784Z,58.37
2018-11-26T02:43:55.988Z,51.80
2018-11-26T02:46:24.194Z,53.87
2018-11-26T02:48:52.468Z,59.13
2018-11-26T02:51:20.681Z,54.53
2018-11-26T02:53:48.930Z,64.13
2018-11-26T02:56:17.149Z,53.73
2018-11-26T02:58:45.353Z,59.93
2018-11-26T03:01:13.557Z,56.10
2018-11-26T03:03:41.773Z,49.50
2018-11-26T03:06:09.982Z,51.10
2018-11-26T03:08:38.201Z,62.43
2018-11-26T03:11:06.417Z,58.97
2018-11-26T03:13:34.628Z,53.20
2018-11-26T03:16:02.821Z,60.53
2018-11-26T03:18:31.086Z,58.20
2018-11-26T03:20:59.322Z,57.10
2018-11-26T03:23:27.520Z,45.80
2018-11-26T03:25:55.745Z,50.93
2018-11-26T03:28:23.989Z,65.73
2018-11-26T03:30:52.172Z,60.67
2018-11-26T03:33:20.372Z,55.80
2018-11-26T03:35:48.628Z,54.70
2018-11-26T03:38:28.064Z,56.13
2018-11-26T03:40:56.281Z,52.07
2018-11-26T03:43:24.517Z,57.50
2018-11-26T03:45:52.736Z,56.33
2018-11-26T03:48:20.941Z,52.47
2018-11-26T03:50:49.148Z,56.33
2018-11-26T03:53:17.349Z,61.10
2018-11-26T03:55:45.553Z,61.73
2018-11-26T03:58:13.757Z,54.37
2018-11-26T04:00:41.961Z,54.43
2018-11-26T04:03:10.179Z,61.47
2018-11-26T04:05:38.384Z,57.97
2018-11-26T04:08:06.762Z,54.80
2018-11-26T04:10:34.995Z,59.77
2018-11-26T04:13:03.205Z,57.50
2018-11-26T04:15:31.428Z,61.70
2018-11-26T04:17:59.631Z,60.30
2018-11-26T04:20:27.837Z,57.73
2018-11-26T04:22:56.038Z,59.30
2018-11-26T04:25:24.431Z,58.30
2018-11-26T04:27:52.648Z,57.63
2018-11-26T04:30:20.884Z,52.03
2018-11-26T04:32:49.118Z,50.67
2018-11-26T04:35:17.329Z,56.60
2018-11-26T04:37:45.537Z,55.73
2018-11-26T04:40:13.757Z,56.90
2018-11-26T04:42:41.964Z,49.93
2018-11-26T04:45:10.536Z,54.77
2018-11-26T04:47:38.883Z,58.87
2018-11-26T04:50:08.974Z,54.33
2018-11-26T04:52:37.185Z,50.23
2018-11-26T04:55:05.457Z,58.90
2018-11-26T04:57:34.340Z,58.13
2018-11-26T05:00:01.939Z,60.07
2018-11-26T05:02:30.160Z,50.67
2018-11-26T05:04:58.405Z,49.77
2018-11-26T05:07:26.613Z,56.67
2018-11-26T05:09:54.853Z,54.00
2018-11-26T05:12:23.064Z,58.67
2018-11-26T05:14:51.273Z,52.63
2018-11-26T05:17:19.517Z,47.93
2018-11-26T05:19:47.742Z,62.10
2018-11-26T05:22:15.985Z,50.47
2018-11-26T05:24:44.481Z,50.93
2018-11-26T05:27:12.728Z,55.50
2018-11-26T05:29:40.934Z,52.13
2018-11-26T05:32:09.173Z,51.97
2018-11-26T05:34:37.409Z,50.87
2018-11-26T05:37:06.177Z,58.17
2018-11-26T05:39:34.553Z,51.50
2018-11-26T05:42:02.763Z,60.33
2018-11-26T05:44:30.985Z,59.17
2018-11-26T05:46:59.224Z,54.73
2018-11-26T05:49:27.468Z,55.07
2018-11-26T05:51:55.714Z,49.60
2018-11-26T05:54:23.912Z,52.87
2018-11-26T05:56:52.213Z,54.93
2018-11-26T05:59:20.424Z,58.07
2018-11-26T06:01:48.679Z,52.90
2018-11-26T06:04:16.896Z,56.10
2018-11-26T06:06:45.142Z,58.37
2018-11-26T06:09:13.373Z,55.37
2018-11-26T06:11:41.586Z,49.30
2018-11-26T06:14:09.801Z,47.00
2018-11-26T06:16:38.018Z,49.93
2018-11-26T06:19:06.373Z,47.33
2018-11-26T06:21:34.581Z,48.40
2018-11-26T06:24:02.801Z,57.90
2018-11-26T06:26:31.084Z,52.63
2018-11-26T06:28:59.309Z,51.20
2018-11-26T06:31:27.522Z,45.47
2018-11-26T06:33:55.740Z,55.13
2018-11-26T06:36:24.001Z,50.10
2018-11-26T06:38:52.233Z,47.67
2018-11-26T06:41:20.513Z,53.60
2018-11-26T06:43:48.741Z,52.20
2018-11-26T06:46:16.993Z,48.13
2018-11-26T06:48:45.414Z,51.27
2018-11-26T06:51:13.416Z,48.37
2018-11-26T06:53:41.633Z,53.53
2018-11-26T06:56:09.853Z,47.77
2018-11-26T06:58:38.821Z,48.63
2018-11-26T07:01:07.061Z,45.87
2018-11-26T07:03:35.298Z,50.97
2018-11-26T07:06:03.497Z,52.03
2018-11-26T07:08:31.747Z,56.20
2018-11-26T07:10:59.963Z,51.87
2018-11-26T07:13:28.209Z,43.90
2018-11-26T07:15:56.545Z,48.40
2018-11-26T07:18:24.776Z,48.47
2018-11-26T07:20:52.984Z,47.83
2018-11-26T07:23:21.249Z,52.30
2018-11-26T07:25:49.471Z,51.10
2018-11-26T07:28:17.805Z,47.70
2018-11-26T07:30:46.128Z,48.23
2018-11-26T07:33:14.382Z,50.60
2018-11-26T07:35:42.593Z,53.83
2018-11-26T07:38:10.813Z,52.90
2018-11-26T07:40:39.041Z,42.80
2018-11-26T07:43:09.505Z,52.63
2018-11-26T07:45:37.977Z,48.60
2018-11-26T07:48:07.083Z,48.63
2018-11-26T07:50:36.057Z,43.40
2018-11-26T07:53:05.193Z,48.83
2018-11-26T07:55:33.449Z,45.90
2018-11-26T07:58:01.644Z,49.27
2018-11-26T08:00:29.949Z,50.03
2018-11-26T08:02:58.172Z,52.50
2018-11-26T08:05:26.437Z,44.50
2018-11-26T08:07:54.652Z,43.53
2018-11-26T08:10:23.505Z,48.87
2018-11-26T08:12:53.527Z,47.20
2018-11-26T08:15:22.788Z,45.17
2018-11-26T08:17:51.023Z,49.03
2018-11-26T08:20:19.265Z,45.10
2018-11-26T08:22:47.516Z,47.67
2018-11-26T08:25:17.808Z,48.00
2018-11-26T08:27:46.757Z,50.60
2018-11-26T08:30:22.584Z,44.70
2018-11-26T08:32:52.952Z,44.40
2018-11-26T08:35:21.173Z,45.97
2018-11-26T08:37:54.689Z,47.93
2018-11-26T08:40:25.308Z,44.63
2018-11-26T08:42:59.051Z,50.30
2018-11-26T08:45:32.757Z,40.30
2018-11-26T08:48:05.530Z,46.70
2018-11-26T08:50:34.052Z,46.60
2018-11-26T08:53:02.244Z,54.17
2018-11-26T08:55:30.465Z,43.73
2018-11-26T08:57:58.673Z,49.23
2018-11-26T09:00:26.881Z,46.70
2018-11-26T09:03:00.212Z,50.80
2018-11-26T09:05:34.859Z,46.33
2018-11-26T09:08:03.061Z,44.40
2018-11-26T09:10:31.301Z,45.80
2018-11-26T09:12:59.552Z,51.87
2018-11-26T09:15:27.838Z,45.00
2018-11-26T09:17:56.028Z,52.23
2018-11-26T09:20:24.240Z,47.47
2018-11-26T09:22:52.440Z,53.67
2018-11-26T09:25:20.655Z,49.50
2018-11-26T09:27:48.876Z,51.67
2018-11-26T09:30:17.077Z,57.07
2018-11-26T09:32:45.300Z,55.67
2018-11-26T09:35:15.536Z,55.40
2018-11-26T09:37:43.772Z,49.00
2018-11-26T09:40:14.052Z,52.10
2018-11-26T09:42:42.320Z,46.87
2018-11-26T09:45:11.754Z,53.73
2018-11-26T09:47:39.962Z,51.60
2018-11-26T09:50:10.177Z,43.40
2018-11-26T09:52:38.381Z,55.73
2018-11-26T09:55:06.721Z,52.30
2018-11-26T09:57:34.944Z,52.90
2018-11-26T10:00:03.534Z,52.40
2018-11-26T10:02:31.777Z,50.77
2018-11-26T10:04:59.989Z,53.77
2018-11-26T10:07:28.192Z,51.77
2018-11-26T10:09:56.406Z,52.40
2018-11-26T10:12:24.616Z,49.53
2018-11-26T10:14:52.839Z,56.20
2018-11-26T10:17:21.045Z,43.23
2018-11-26T10:19:49.261Z,55.73
2018-11-26T10:22:17.472Z,50.03
2018-11-26T10:24:45.717Z,50.47
2018-11-26T10:27:13.939Z,51.43
2018-11-26T10:29:42.208Z,46.77
2018-11-26T10:32:10.429Z,48.60
2018-11-26T10:34:38.741Z,47.33
2018-11-26T10:37:06.958Z,49.87
2018-11-26T10:39:35.177Z,60.37
2018-11-26T10:42:03.454Z,52.73
2018-11-26T10:44:31.756Z,53.50
2018-11-26T10:46:59.965Z,50.63
2018-11-26T10:49:28.178Z,59.40
2018-11-26T10:51:56.393Z,48.23
2018-11-26T10:54:24.625Z,51.27
2018-11-26T10:56:52.833Z,62.80
2018-11-26T10:59:21.736Z,49.90
2018-11-26T11:01:55.269Z,56.83
2018-11-26T11:04:23.706Z,48.90
2018-11-26T11:06:55.658Z,57.10
2018-11-26T11:09:20.174Z,48.60
2018-11-26T11:11:48.401Z,54.03
2018-11-26T11:14:16.661Z,54.83
2018-11-26T11:16:44.878Z,53.13
2018-11-26T11:19:13.585Z,55.50
2018-11-26T11:21:42.084Z,46.77
2018-11-26T11:24:10.428Z,47.50
2018-11-26T11:26:38.637Z,52.13
2018-11-26T11:29:06.885Z,49.97
2018-11-26T11:31:35.138Z,51.00
2018-11-26T11:34:03.357Z,47.53
2018-11-26T11:36:31.583Z,55.60
2018-11-26T11:38:59.811Z,53.73
2018-11-26T11:41:28.098Z,52.27
2018-11-26T11:43:56.330Z,46.77
2018-11-26T11:46:24.558Z,43.70
2018-11-26T11:48:52.803Z,52.93
2018-11-26T11:51:21.017Z,45.93
2018-11-26T11:53:49.266Z,51.13
2018-11-26T11:56:17.477Z,46.10
2018-11-26T11:58:45.729Z,52.10
2018-11-26T12:01:14.057Z,48.80
2018-11-26T12:03:42.277Z,54.63
2018-11-26T12:06:11.376Z,42.13
2018-11-26T12:08:38.739Z,49.97
2018-11-26T12:11:07.225Z,54.00
2018-11-26T12:13:35.425Z,51.00
2018-11-26T12:16:03.691Z,48.20
2018-11-26T12:18:31.915Z,48.87
2018-11-26T12:21:00.119Z,43.23
2018-11-26T12:23:28.504Z,49.53
2018-11-26T12:25:56.710Z,48.87
2018-11-26T12:28:24.938Z,37.57
2018-11-26T12:30:53.158Z,51.73
2018-11-26T12:33:21.393Z,46.70
2018-11-26T12:35:49.716Z,51.87
2018-11-26T12:38:17.925Z,52.27
2018-11-26T12:40:46.180Z,43.10
2018-11-26T12:43:14.395Z,50.23
2018-11-26T12:45:42.705Z,45.87
2018-11-26T12:48:10.966Z,46.43
2018-11-26T12:50:39.188Z,48.33
2018-11-26T12:53:07.408Z,50.63
2018-11-26T12:55:37.186Z,44.23
2018-11-26T12:58:06.637Z,50.20
2018-11-26T13:00:35.101Z,47.87
2018-11-26T13:03:06.610Z,43.80
2018-11-26T13:05:34.848Z,52.83
2018-11-26T13:08:03.096Z,48.50
2018-11-26T13:10:31.331Z,47.83
2018-11-26T13:12:59.559Z,51.57
2018-11-26T13:15:28.682Z,43.10
2018-11-26T13:17:56.897Z,48.77
2018-11-26T13:20:30.572Z,39.87
2018-11-26T13:22:58.804Z,45.30
2018-11-26T13:25:28.069Z,47.60
2018-11-26T13:27:57.352Z,45.50
2018-11-26T13:30:29.459Z,51.50
2018-11-26T13:32:58.803Z,41.43
2018-11-26T13:35:27.040Z,47.73
2018-11-26T13:37:55.335Z,51.20
2018-11-26T13:40:23.626Z,48.23
2018-11-26T13:42:52.061Z,44.50
2018-11-26T13:45:37.250Z,50.13
2018-11-26T13:48:07.299Z,49.97
2018-11-26T13:50:37.951Z,49.73
2018-11-26T13:53:06.380Z,57.10
2018-11-26T13:55:34.698Z,47.63
2018-11-26T13:58:02.923Z,52.30
2018-11-26T14:00:31.173Z,54.47
2018-11-26T14:02:59.379Z,49.40
2018-11-26T14:05:27.718Z,48.90
2018-11-26T14:07:55.902Z,58.43
2018-11-26T14:10:25.260Z,52.37
2018-11-26T14:12:55.734Z,51.40
2018-11-26T14:15:23.954Z,52.20
2018-11-26T14:17:52.232Z,51.33
2018-11-26T14:20:20.438Z,45.13
2018-11-26T14:22:48.673Z,49.80
2018-11-26T14:25:17.754Z,53.50
2018-11-26T14:27:46.453Z,50.57
2018-11-26T14:30:16.758Z,52.73
2018-11-26T14:32:44.978Z,52.60
2018-11-26T14:35:13.213Z,50.83
2018-11-26T14:37:41.632Z,55.47
2018-11-26T14:40:11.383Z,46.60
2018-11-26T14:42:39.598Z,52.53
2018-11-26T14:45:09.905Z,53.60
2018-11-26T14:47:38.144Z,49.47
2018-11-26T14:50:09.850Z,56.33
2018-11-26T14:52:38.087Z,49.70
2018-11-26T14:55:09.163Z,48.83
2018-11-26T14:57:37.474Z,52.60
2018-11-26T15:00:08.424Z,52.93
2018-11-26T15:02:36.648Z,54.50
2018-11-26T15:05:05.158Z,52.60
2018-11-26T15:07:33.378Z,57.80
2018-11-26T15:10:01.605Z,47.57
2018-11-26T15:12:29.831Z,54.50
2018-11-26T15:14:58.087Z,51.00
2018-11-26T15:17:26.344Z,55.70
2018-11-26T15:19:54.562Z,56.27
2018-11-26T15:22:22.801Z,54.67
2018-11-26T15:24:51.155Z,51.03
2018-11-26T15:27:20.302Z,48.60
2018-11-26T15:29:48.530Z,50.60
2018-11-26T15:32:16.754Z,48.93
2018-11-26T15:34:45.020Z,45.53
2018-11-26T15:37:13.241Z,52.73
2018-11-26T15:39:41.466Z,50.30
2018-11-26T15:42:09.678Z,51.00
2018-11-26T15:44:37.911Z,50.80
2018-11-26T15:47:06.222Z,50.57
2018-11-26T15:49:35.153Z,58.47
2018-11-26T15:52:03.386Z,48.33
2018-11-26T15:54:31.718Z,48.30
2018-11-26T15:56:59.975Z,48.10
2018-11-26T15:59:28.220Z,45.07
2018-11-26T16:01:56.477Z,54.33
2018-11-26T16:04:25.111Z,51.03
2018-11-26T16:06:53.336Z,46.20
2018-11-26T16:09:21.919Z,47.83
2018-11-26T16:11:50.157Z,49.40
2018-11-26T16:14:18.386Z,44.03
2018-11-26T16:16:46.671Z,43.00
2018-11-26T16:19:14.940Z,49.13
2018-11-26T16:21:43.155Z,48.53
2018-11-26T16:24:11.401Z,42.93
2018-11-26T16:26:39.619Z,46.00
2018-11-26T16:29:07.847Z,42.23
2018-11-26T16:31:36.329Z,41.43
2018-11-26T16:34:05.126Z,39.83
2018-11-26T16:36:33.396Z,41.27
2018-11-26T16:39:01.677Z,39.43
2018-11-26T16:41:29.945Z,39.97
2018-11-26T16:43:58.183Z,40.73
2018-11-26T16:46:26.410Z,40.63
2018-11-26T16:48:54.630Z,45.00
2018-11-26T16:51:22.876Z,41.17
2018-11-26T16:53:51.085Z,39.27
2018-11-26T16:56:19.308Z,41.90
2018-11-26T16:58:47.633Z,35.70
2018-11-26T17:01:15.871Z,39.73
2018-11-26T17:03:44.095Z,39.73
2018-11-26T17:06:12.323Z,39.70
2018-11-26T17:08:40.603Z,40.93
2018-11-26T17:11:08.851Z,39.00
2018-11-26T17:13:37.075Z,36.60
2018-11-26T17:16:05.461Z,38.27
2018-11-26T17:18:33.718Z,37.63
2018-11-26T17:21:01.950Z,37.10
2018-11-26T17:23:30.246Z,37.20
2018-11-26T17:25:58.454Z,38.40
2018-11-26T17:28:26.846Z,37.30
2018-11-26T17:30:55.062Z,37.33
2018-11-26T17:33:23.394Z,39.10
2018-11-26T17:35:51.653Z,33.90
2018-11-26T17:38:19.917Z,38.63
2018-11-26T17:40:48.146Z,35.53
2018-11-26T17:43:16.438Z,34.33
2018-11-26T17:45:45.720Z,36.90
2018-11-26T17:48:13.934Z,36.73
2018-11-26T17:50:43.318Z,34.87
2018-11-26T17:53:17.430Z,38.40
2018-11-26T17:55:50.769Z,37.23
2018-11-26T17:58:20.089Z,36.23
2018-11-26T18:00:51.473Z,35.73
2018-11-26T18:03:19.681Z,32.10
2018-11-26T18:05:47.970Z,39.83
2018-11-26T18:08:17.696Z,34.93
2018-11-26T18:10:46.039Z,43.30
2018-11-26T18:13:14.345Z,35.67
2018-11-26T18:15:42.561Z,29.50
2018-11-26T18:18:12.518Z,35.53
2018-11-26T18:20:40.732Z,34.50
2018-11-26T18:23:09.655Z,42.03
2018-11-26T18:25:37.941Z,33.53
2018-11-26T18:28:08.010Z,33.60
2018-11-26T18:30:37.796Z,34.87
2018-11-26T18:33:06.313Z,36.47
2018-11-26T18:35:34.650Z,40.00
2018-11-26T18:38:02.955Z,35.27
2018-11-26T18:40:31.181Z,40.00
2018-11-26T18:42:59.405Z,36.10
2018-11-26T18:45:27.636Z,42.10
2018-11-26T18:47:56.075Z,38.23
2018-11-26T18:50:24.370Z,36.07
2018-11-26T18:52:52.611Z,36.77
2018-11-26T18:55:20.816Z,38.70
2018-11-26T18:57:55.577Z,40.43
2018-11-26T19:00:27.785Z,39.10
2018-11-26T19:02:56.558Z,42.23
2018-11-26T19:05:24.788Z,38.63
2018-11-26T19:07:53.287Z,38.53
2018-11-26T19:10:30.666Z,40.63
2018-11-26T19:13:00.638Z,41.67
2018-11-26T19:15:30.692Z,40.77
2018-11-26T19:18:02.014Z,39.90
2018-11-26T19:20:30.550Z,40.07
2018-11-26T19:22:58.795Z,39.90
2018-11-26T19:25:27.010Z,41.67
2018-11-26T19:27:55.259Z,44.27
2018-11-26T19:30:23.499Z,38.03
2018-11-26T19:32:51.750Z,44.13
2018-11-26T19:35:20.065Z,40.70
2018-11-26T19:37:48.293Z,41.03
2018-11-26T19:40:17.078Z,46.93
2018-11-26T19:42:46.027Z,41.40
2018-11-26T19:45:16.176Z,40.10
2018-11-26T19:47:44.575Z,37.60
2018-11-26T19:50:14.954Z,36.30
2018-11-26T19:52:43.428Z,43.23
2018-11-26T19:55:26.914Z,43.60
2018-11-26T19:57:57.477Z,36.97
2018-11-26T20:00:26.791Z,43.13
2018-11-26T20:02:56.562Z,43.00
2018-11-26T20:05:35.649Z,40.50
2018-11-26T20:08:03.919Z,38.03
2018-11-26T20:10:32.146Z,37.13
2018-11-26T20:13:00.395Z,37.23
2018-11-26T20:15:30.494Z,37.40
2018-11-26T20:17:59.808Z,38.03
2018-11-26T20:20:28.103Z,39.00
2018-11-26T20:22:56.358Z,39.97
2018-11-26T20:25:24.630Z,40.30
2018-11-26T20:27:52.851Z,37.50
2018-11-26T20:30:21.086Z,40.43
2018-11-26T20:32:49.321Z,37.43
2018-11-26T20:35:17.555Z,36.03
2018-11-26T20:37:45.771Z,36.10
2018-11-26T20:40:15.061Z,39.80
2018-11-26T20:42:46.909Z,36.33
2018-11-26T20:45:15.787Z,34.13
2018-11-26T20:47:44.955Z,36.43
2018-11-26T20:50:16.819Z,34.00
2018-11-26T20:52:45.101Z,38.70
2018-11-26T20:55:15.671Z,38.90
2018-11-26T20:57:43.897Z,34.70
2018-11-26T21:00:17.438Z,33.03
2018-11-26T21:02:47.060Z,35.47
2018-11-26T21:05:15.543Z,33.83
2018-11-26T21:07:44.017Z,36.53
2018-11-26T21:10:13.525Z,30.30
2018-11-26T21:12:41.986Z,37.77
2018-11-26T21:15:15.265Z,34.03
2018-11-26T21:17:48.070Z,37.00
2018-11-26T21:20:22.069Z,38.33
2018-11-26T21:22:50.698Z,37.70
2018-11-26T21:25:19.260Z,35.20
2018-11-26T21:27:47.770Z,37.20
2018-11-26T21:30:17.329Z,36.50
2018-11-26T21:32:45.861Z,37.83
2018-11-26T21:35:16.372Z,28.53
2018-11-26T21:37:46.194Z,38.20
2018-11-26T21:40:20.330Z,33.30
2018-11-26T21:42:44.431Z,35.07
2018-11-26T21:45:21.806Z,35.70
2018-11-26T21:47:50.326Z,33.77
2018-11-26T21:50:19.145Z,33.77
2018-11-26T21:52:47.620Z,38.77
2018-11-26T21:55:18.169Z,37.13
2018-11-26T21:57:46.655Z,40.57
2018-11-26T22:00:18.442Z,37.60
2018-11-26T22:02:46.986Z,35.70
2018-11-26T22:05:15.479Z,30.37
2018-11-26T22:07:43.986Z,42.27
2018-11-26T22:10:14.307Z,34.90
2018-11-26T22:12:43.665Z,36.90
2018-11-26T22:15:13.098Z,35.83
2018-11-26T22:17:41.947Z,34.23
2018-11-26T22:20:27.508Z,38.53
2018-11-26T22:22:56.118Z,31.53
2018-11-26T22:25:24.715Z,33.87
2018-11-26T22:27:53.701Z,38.97
2018-11-26T22:30:28.495Z,33.93
2018-11-26T22:32:57.054Z,37.13
2018-11-26T22:35:25.559Z,36.10
2018-11-26T22:37:54.196Z,34.63
2018-11-26T22:40:23.489Z,36.60
2018-11-26T22:42:51.771Z,31.33
2018-11-26T22:45:23.866Z,35.93
2018-11-26T22:47:55.203Z,35.40
2018-11-26T22:50:23.440Z,36.77
2018-11-26T22:52:51.661Z,36.67
2018-11-26T22:55:19.861Z,35.10
2018-11-26T22:57:48.122Z,33.93
2018-11-26T23:00:21.747Z,35.57
2018-11-26T23:02:50.455Z,33.63
2018-11-26T23:05:18.675Z,36.73
2018-11-26T23:07:46.900Z,36.13
2018-11-26T23:10:15.134Z,28.10
2018-11-26T23:12:43.398Z,35.40
2018-11-26T23:15:12.766Z,32.00
2018-11-26T23:17:41.383Z,31.43
2018-11-26T23:20:13.396Z,35.43
2018-11-26T23:22:41.645Z,33.47
2018-11-26T23:25:11.039Z,37.30
2018-11-26T23:27:39.325Z,32.13
2018-11-26T23:30:15.317Z,31.37
2018-11-26T23:32:43.953Z,28.77
2018-11-26T23:35:12.170Z,33.87
2018-11-26T23:37:40.433Z,33.10
2018-11-26T23:40:10.510Z,34.30
2018-11-26T23:42:38.739Z,31.63
2018-11-26T23:45:12.818Z,33.57
2018-11-26T23:47:41.049Z,29.80
2018-11-26T23:50:10.293Z,29.77
2018-11-26T23:52:39.071Z,29.37
2018-11-26T23:55:13.062Z,26.87
2018-11-26T23:57:41.285Z,29.20
